Time;durP1;ratioP1;P1;durP2;ratioP2;P2;SDS_P1;SDS_P2;PMS_P1;PMS_P2;Temp;Humidity;BMP_temperature;BMP_pressure;BME280_temperature;BME280_humidity;BME280_pressure;Samples;Min_cycle;Max_cycle;Signal;HPM_P1;HPM_P2
2022/02/05 03:39:10;;;;;;;26.27;18.20;;;;;;;-1.57;58.25;99304.03;6220750;22;20063;-85
2022/02/05 03:41:36;;;;;;;20.47;15.77;;;;;;;-0.17;58.46;99561.06;6258648;22;20020;-83
2022/02/05 03:47:37;;;;;;;27.77;19.53;;;;;;;1.81;58.51;99821.16;6280043;22;20451;-85
2022/02/05 03:50:52;;;;;;;34.57;22.77;;;;;;;1.81;58.36;99816.78;6280502;22;20087;-85
2022/02/05 03:58:40;;;;;;;29.70;21.50;;;;;;;-1.48;58.41;99325.91;6265294;22;20053;-83
2022/02/05 04:08:59;;;;;;;31.07;21.97;;;;;;;-0.12;58.14;99564.16;6238852;22;19899;-87
2022/02/05 04:11:55;;;;;;;26.00;19.80;;;;;;;-0.60;58.36;99503.63;6305532;22;19988;-85
2022/02/05 08:45:53;;;;;;;24.10;17.60;;;;;;;3.44;54.76;99582.06;6252570;22;20008;-84
2022/02/05 08:48:19;;;;;;;25.17;18.37;;;;;;;2.40;54.45;99386.69;6274135;22;19998;-85
2022/02/05 08:50:46;;;;;;;24.43;18.00;;;;;;;2.70;54.59;99411.09;6270712;22;19995;-86
2022/02/05 08:53:18;;;;;;;26.77;18.40;;;;;;;3.48;54.08;99574.78;6266666;23;20007;-85
2022/02/05 08:55:43;;;;;;;21.30;14.17;;;;;;;4.00;54.13;99589.38;6254430;23;20000;-88
2022/02/05 08:58:10;;;;;;;21.40;15.70;;;;;;;5.08;53.95;99757.53;6245110;23;20027;-89
2022/02/05 09:00:44;;;;;;;21.30;16.50;;;;;;;3.98;53.74;99604.38;6275280;22;19999;-90
2022/02/05 09:03:14;;;;;;;18.93;13.47;;;;;;;5.27;54.10;99784.69;6275674;22;20006;-90
2022/02/05 09:05:48;;;;;;;21.37;15.27;;;;;;;4.69;53.31;99693.06;6273835;22;20025;-90
2022/02/05 09:08:27;;;;;;;18.00;13.67;;;;;;;4.71;52.85;99659.75;6275225;22;19996;-90
2022/02/05 09:11:03;;;;;;;17.23;12.10;;;;;;;4.66;53.08;99613.09;6275382;22;20097;-90
2022/02/05 09:16:04;;;;;;;19.07;13.73;;;;;;;5.72;52.29;99798.00;6275494;22;20004;-90
2022/02/05 09:18:29;;;;;;;15.03;11.83;;;;;;;4.72;52.73;99627.41;6273668;22;20031;-90
2022/02/05 09:20:56;;;;;;;16.47;12.90;;;;;;;5.82;51.89;99774.41;6273892;22;20061;-90
2022/02/05 09:23:21;;;;;;;19.90;15.43;;;;;;;5.94;52.16;99781.16;6273601;22;20006;-92
2022/02/05 09:25:47;;;;;;;30.30;14.77;;;;;;;5.59;52.17;99722.34;6276347;22;19999;-93
2022/02/05 09:28:12;;;;;;;27.27;17.40;;;;;;;5.68;52.10;99711.03;6274190;22;19999;-92
2022/02/05 09:33:39;;;;;;;19.33;14.80;;;;;;;5.90;50.98;99741.31;6241327;22;19999;-92
2022/02/05 09:36:06;;;;;;;19.87;15.03;;;;;;;6.33;50.98;99780.06;6274140;22;20432;-92
2022/02/05 09:38:34;;;;;;;21.70;17.30;;;;;;;6.75;50.72;99824.22;6274058;22;19999;-92
2022/02/05 09:41:00;;;;;;;19.67;14.17;;;;;;;6.83;50.36;99812.97;6275329;22;20018;-93
2022/02/05 09:43:28;;;;;;;20.53;14.27;;;;;;;6.84;49.62;99818.06;6273813;22;20410;-93
2022/02/05 09:45:58;;;;;;;15.83;11.17;;;;;;;6.29;49.44;99741.19;6275271;22;20011;-93
2022/02/05 09:48:30;;;;;;;17.80;14.53;;;;;;;6.96;49.33;99818.69;6275211;22;20011;-93
2022/02/05 09:51:04;;;;;;;18.50;14.30;;;;;;;6.57;48.72;99742.81;6275193;22;20000;-92
2022/02/05 09:53:30;;;;;;;23.37;15.13;;;;;;;6.41;49.03;99702.47;6273512;22;20069;-92
2022/02/05 09:55:55;;;;;;;19.00;15.63;;;;;;;6.59;48.98;99713.81;6274756;22;20023;-92
2022/02/05 09:58:21;;;;;;;20.87;15.70;;;;;;;7.09;48.41;99765.81;6274259;22;20081;-92
2022/02/05 10:01:01;;;;;;;19.50;15.13;;;;;;;7.26;48.41;99772.88;6274956;22;20004;-92
2022/02/05 10:03:29;;;;;;;21.50;14.70;;;;;;;7.53;48.03;99796.44;6275725;22;20352;-92
2022/02/05 10:06:09;;;;;;;23.13;15.73;;;;;;;7.36;47.59;99760.47;6273589;22;20433;-92
2022/02/05 10:08:37;;;;;;;19.90;14.40;;;;;;;7.16;47.41;99688.09;6273570;22;20006;-92
2022/02/05 10:11:04;;;;;;;21.07;14.47;;;;;;;7.80;46.96;99782.34;6273753;22;20034;-92
2022/02/05 10:13:30;;;;;;;13.33;10.60;;;;;;;7.86;46.99;99788.78;6273807;22;20423;-92
2022/02/05 10:15:57;;;;;;;23.60;15.93;;;;;;;7.25;46.72;99684.56;6275965;22;19996;-92
2022/02/05 10:18:31;;;;;;;20.70;14.07;;;;;;;7.86;46.67;99773.84;6274466;22;20021;-91
2022/02/05 10:21:02;;;;;;;21.77;15.13;;;;;;;8.06;46.74;99787.59;6272996;22;20433;-92
2022/02/05 10:23:29;;;;;;;23.50;16.33;;;;;;;8.13;45.74;99787.78;6273246;22;19995;-92
2022/02/05 10:25:55;;;;;;;18.13;14.93;;;;;;;7.41;46.12;99675.97;6274524;22;19999;-92
2022/02/05 10:28:22;;;;;;;25.77;16.60;;;;;;;7.49;45.87;99681.28;6272625;22;20065;-92
2022/02/05 10:30:51;;;;;;;19.88;15.52;;;;;;;8.01;45.63;99753.06;6272834;22;19995;-92
2022/02/05 10:33:22;;;;;;;23.10;17.57;;;;;;;8.33;45.80;99772.63;6273196;22;20003;-93
2022/02/05 10:35:56;;;;;;;23.60;18.40;;;;;;;8.40;46.32;99768.41;6274673;22;20003;-92
2022/02/05 10:38:51;;;;;;;22.30;17.60;;;;;;;8.44;46.17;99761.84;6273076;22;20004;-92
2022/02/05 10:44:17;;;;;;;25.83;18.23;;;;;;;8.17;46.39;99686.56;6275088;22;20004;-92
2022/02/05 10:46:43;;;;;;;;;;;;;;;8.56;46.62;99747.41;6275522;22;20012;-91
2022/02/05 10:49:36;;;;;;;14.05;11.05;;;;;;;8.39;46.20;99704.44;6273311;22;19911;-92
2022/02/05 10:52:02;;;;;;;15.93;10.63;;;;;;;8.31;46.12;99685.16;6269172;22;20082;-92
2022/02/05 10:54:46;;;;;;;15.05;10.70;;;;;;;8.47;46.12;99701.00;6273588;22;20071;-92
2022/02/05 10:57:25;;;;;;;13.20;11.05;;;;;;;8.84;46.03;99740.91;6273111;22;20145;-92
2022/02/05 11:05:43;;;;;;;16.40;12.45;;;;;;;8.70;46.16;99706.47;6274181;22;20010;-92
2022/02/05 11:08:09;;;;;;;14.05;11.13;;;;;;;8.93;46.74;99723.34;6272652;22;20007;-92
2022/02/05 11:18:49;;;;;;;14.27;9.07;;;;;;;8.40;46.72;99606.13;6284937;22;20006;-91
2022/02/05 11:21:15;;;;;;;11.43;8.68;;;;;;;8.77;46.82;99652.19;6278105;22;20026;-90
2022/02/05 11:23:45;;;;;;;12.65;8.52;;;;;;;8.89;46.75;99662.25;6306385;22;19995;-91
2022/02/05 11:26:12;;;;;;;13.45;11.60;;;;;;;9.14;46.69;99699.16;6306569;22;20070;-91
2022/02/05 11:28:49;;;;;;;9.52;8.52;;;;;;;9.12;46.78;99693.22;6306388;22;20056;-91
2022/02/05 11:31:31;;;;;;;10.43;8.48;;;;;;;8.54;47.09;99604.66;6306984;22;20440;-89
2022/02/05 11:34:38;;;;;;;15.45;10.57;;;;;;;9.12;46.91;99693.22;6279806;22;20075;-92
2022/02/05 11:37:09;;;;;;;6.88;6.22;;;;;;;9.14;47.10;99701.78;6280150;22;20037;-92
2022/02/05 11:39:48;;;;;;;10.20;6.90;;;;;;;9.15;47.39;99685.81;6307201;22;19999;-91
2022/02/05 11:42:28;;;;;;;8.40;7.47;;;;;;;9.18;47.15;99690.75;6307610;22;20000;-92
2022/02/05 11:44:59;;;;;;;11.38;8.05;;;;;;;9.20;47.26;99688.78;6307252;22;20015;-91
2022/02/05 11:47:34;;;;;;;10.70;7.73;;;;;;;8.93;47.48;99646.97;6279909;22;20003;-92
2022/02/05 11:49:59;;;;;;;15.48;10.82;;;;;;;9.17;47.49;99683.00;6305219;22;19996;-91
2022/02/05 11:52:42;;;;;;;13.07;9.88;;;;;;;9.15;47.65;99672.63;6307140;22;20026;-91
2022/02/05 11:55:09;;;;;;;11.18;9.30;;;;;;;8.79;48.11;99623.91;6279528;22;20082;-91
2022/02/05 11:57:47;;;;;;;13.43;11.63;;;;;;;9.14;48.05;99670.16;6306598;22;20070;-91
2022/02/05 12:00:20;;;;;;;11.63;8.73;;;;;;;9.14;47.98;99667.53;6306445;22;19995;-91
2022/02/05 12:03:10;;;;;;;68.32;50.42;;;;;;;9.16;48.00;99661.09;6307005;22;20007;-92
2022/02/05 12:05:48;;;;;;;48.65;38.30;;;;;;;8.88;48.35;99621.09;6307003;22;20424;-91
2022/02/05 12:08:13;;;;;;;21.40;17.08;;;;;;;9.24;48.04;99661.09;6279589;22;20453;-91
2022/02/05 12:10:41;;;;;;;16.52;13.32;;;;;;;8.65;48.19;99567.47;6279418;22;20003;-92
2022/02/05 12:13:40;;;;;;;18.67;14.50;;;;;;;9.29;47.78;99665.06;6307112;22;19999;-91
2022/02/05 12:16:06;;;;;;;64.25;48.28;;;;;;;9.31;47.73;99649.91;6279781;22;19999;-89
2022/02/05 12:18:52;;;;;;;71.20;52.63;;;;;;;9.02;47.98;99598.56;6279554;22;20022;-92
2022/02/05 12:21:27;;;;;;;96.20;72.07;;;;;;;8.82;48.32;99550.69;6306373;22;20007;-91
2022/02/05 12:24:21;;;;;;;35.42;26.98;;;;;;;9.54;48.19;99649.03;6279390;22;19995;-91
2022/02/05 12:26:44;;;;;;;53.55;35.72;;;;;;;8.40;48.07;99452.69;6305546;22;20098;-91
2022/02/05 12:29:23;;;;;;;91.28;63.40;;;;;;;8.88;48.02;99533.41;6306700;22;20010;-91
2022/02/05 12:31:51;;;;;;;59.03;43.55;;;;;;;9.78;48.19;99647.34;6307082;22;20010;-91
2022/02/05 12:34:16;;;;;;;101.28;78.57;;;;;;;9.22;48.62;99547.16;6306943;22;20002;-91
2022/02/05 12:36:44;;;;;;;70.75;55.08;;;;;;;9.92;48.00;99637.88;6307163;22;19996;-90
2022/02/05 12:39:12;;;;;;;36.92;29.60;;;;;;;9.77;48.32;99619.31;6308222;22;19999;-91
2022/02/05 12:41:46;;;;;;;33.22;25.92;;;;;;;9.92;48.22;99646.63;6306947;22;20010;-91
2022/02/05 12:44:11;;;;;;;14.48;11.43;;;;;;;9.89;48.42;99657.50;6306622;22;19995;-90
2022/02/05 12:46:47;;;;;;;29.20;21.98;;;;;;;9.70;48.41;99619.19;6279116;22;20024;-91
2022/02/05 12:49:20;;;;;;;16.00;12.05;;;;;;;9.64;48.65;99608.47;6279204;22;20006;-91
2022/02/05 12:51:47;;;;;;;13.15;9.90;;;;;;;9.14;48.19;99535.84;6278965;22;20052;-91
2022/02/05 12:54:18;;;;;;;16.08;11.05;;;;;;;9.64;48.33;99616.38;6278999;22;20010;-91
2022/02/05 12:56:45;;;;;;;20.63;15.57;;;;;;;9.16;48.10;99533.84;6306400;22;19995;-91
2022/02/05 12:59:15;;;;;;;14.30;9.10;;;;;;;8.77;47.89;99462.66;6306123;22;20066;-89
2022/02/05 13:01:54;;;;;;;13.43;9.48;;;;;;;9.76;47.71;99633.50;6306356;22;19999;-89
2022/02/05 13:04:27;;;;;;;12.23;8.70;;;;;;;9.44;47.65;99598.31;6306426;22;20029;-91
2022/02/05 13:06:59;;;;;;;10.93;7.88;;;;;;;9.74;47.61;99640.75;6279272;22;20086;-91
2022/02/05 13:09:26;;;;;;;7.78;6.75;;;;;;;9.30;47.28;99571.84;6279354;22;20432;-90
2022/02/05 13:12:04;;;;;;;8.63;6.63;;;;;;;9.33;47.36;99585.50;6276861;22;20041;-91
2022/02/05 13:15:01;;;;;;;9.43;7.03;;;;;;;9.53;47.08;99620.19;6278031;22;20002;-91
2022/02/05 13:44:24;;;;;;;10.48;6.90;;;;;;;9.12;45.54;99516.75;6305597;22;20015;-90
2022/02/05 13:47:20;;;;;;;10.40;6.63;;;;;;;9.90;45.35;99626.69;6278543;22;20422;-90
2022/02/05 13:50:28;;;;;;;13.40;8.70;;;;;;;9.91;45.51;99639.69;6245393;22;20002;-88
2022/02/05 13:53:02;;;;;;;8.23;6.60;;;;;;;9.94;45.75;99638.53;6230788;22;20400;-90
2022/02/05 13:55:37;;;;;;;9.25;6.22;;;;;;;9.66;45.46;99593.31;6277522;22;20082;-90
2022/02/05 13:58:04;;;;;;;6.57;4.78;;;;;;;10.02;45.19;99636.69;6278454;22;19999;-88
2022/02/05 14:00:43;;;;;;;9.77;6.65;;;;;;;10.06;45.25;99640.63;6304813;22;20026;-90
2022/02/05 14:03:09;;;;;;;6.85;5.22;;;;;;;9.53;45.26;99556.94;6276778;22;20007;-90
2022/02/05 14:05:41;;;;;;;9.73;6.57;;;;;;;9.78;44.34;99602.50;6305614;22;19999;-91
2022/02/05 14:08:07;;;;;;;;;;;;;;;10.07;44.81;99639.63;6292388;22;20003;-88
2022/02/05 14:10:33;;;;;;;14.95;9.57;;;;;;;9.47;45.24;99521.56;6307243;22;19929;-87
2022/02/05 14:12:59;;;;;;;11.65;9.05;;;;;;;9.46;44.83;99519.09;6334088;22;20011;-86
2022/02/05 14:15:28;;;;;;;24.58;13.07;;;;;;;9.93;44.97;99589.41;6304627;22;20025;-88
2022/02/05 14:18:15;;;;;;;25.00;12.85;;;;;;;10.26;44.96;99642.84;6304497;22;20006;-90
2022/02/05 14:20:55;;;;;;;18.08;12.48;;;;;;;10.27;44.95;99637.41;6276788;22;20007;-90
2022/02/05 14:23:24;;;;;;;18.83;12.02;;;;;;;10.29;44.73;99638.06;6276794;22;20018;-90
2022/02/05 14:25:57;;;;;;;18.02;12.02;;;;;;;9.74;44.68;99575.66;6304175;22;20463;-88
2022/02/05 14:28:34;;;;;;;11.20;8.55;;;;;;;9.76;44.35;99538.56;6277258;22;20402;-88
2022/02/05 14:41:51;;;;;;;17.55;12.13;;;;;;;10.28;44.14;99652.25;6305112;22;20013;-88
2022/02/05 14:44:16;;;;;;;12.05;9.23;;;;;;;10.16;44.12;99641.22;6303190;22;20070;-88
2022/02/05 14:46:43;;;;;;;18.08;13.02;;;;;;;10.22;44.69;99662.66;6276529;22;20033;-88
2022/02/05 14:49:09;;;;;;;20.30;14.15;;;;;;;9.46;44.74;99534.91;6301609;22;20022;-88
2022/02/05 14:51:35;;;;;;;22.13;15.93;;;;;;;10.09;44.53;99648.19;6276028;22;20065;-89
2022/02/05 14:54:00;;;;;;;31.55;20.88;;;;;;;9.24;45.18;99523.28;6304020;22;19995;-88
2022/02/05 14:56:26;;;;;;;32.88;20.02;;;;;;;9.98;45.67;99655.66;6304296;22;20003;-88
2022/02/05 14:58:51;;;;;;;36.47;20.48;;;;;;;9.19;46.02;99538.78;6275759;22;21128;-88
2022/02/05 15:01:21;;;;;;;31.45;18.77;;;;;;;9.81;45.96;99649.63;6303788;22;20428;-88
2022/02/05 15:03:48;;;;;;;35.95;19.30;;;;;;;8.81;46.30;99551.66;6304503;22;19995;-88
2022/02/05 15:06:21;;;;;;;31.25;19.30;;;;;;;9.42;46.65;99629.28;6304446;22;20356;-87
2022/02/05 15:08:49;;;;;;;29.08;18.70;;;;;;;9.24;46.40;99611.03;6276525;22;20357;-89
2022/02/05 15:11:18;;;;;;;28.58;19.60;;;;;;;9.37;46.91;99650.06;6304403;22;20011;-91
2022/02/05 15:13:44;;;;;;;36.88;25.17;;;;;;;9.53;46.99;99665.81;6277570;22;20009;-90
2022/02/05 15:16:11;;;;;;;37.05;21.42;;;;;;;9.22;47.26;99625.38;6276693;22;20031;-89
2022/02/05 15:18:41;;;;;;;39.17;25.40;;;;;;;9.09;47.36;99633.78;6277025;22;20003;-90
2022/02/05 15:21:07;;;;;;;41.63;26.00;;;;;;;9.37;47.26;99672.94;6304365;22;20007;-88
2022/02/05 15:23:32;;;;;;;39.38;27.27;;;;;;;8.84;47.55;99604.00;6276418;22;20003;-88
2022/02/05 15:26:02;;;;;;;50.45;33.03;;;;;;;8.86;47.70;99609.91;6277460;22;20064;-89
2022/02/05 15:28:27;;;;;;;48.25;31.25;;;;;;;9.19;48.10;99673.13;6304128;22;20003;-90
2022/02/05 15:30:52;;;;;;;42.88;30.02;;;;;;;9.10;47.49;99682.84;6277347;22;20453;-91
2022/02/05 15:33:21;;;;;;;47.05;30.35;;;;;;;8.39;48.04;99559.75;6277351;22;20037;-90
2022/02/05 15:35:46;;;;;;;43.40;30.75;;;;;;;8.71;48.19;99634.44;6275759;22;20009;-90
2022/02/05 15:38:17;;;;;;;41.97;29.60;;;;;;;8.44;47.85;99583.75;6274664;22;20161;-90
2022/02/05 15:43:43;;;;;;;31.52;22.25;;;;;;;8.64;48.12;99621.09;6292973;22;20007;-89
2022/02/05 15:46:10;;;;;;;25.33;18.92;;;;;;;8.90;47.90;99668.34;6274918;22;20463;-90
2022/02/05 15:48:36;;;;;;;36.17;25.02;;;;;;;8.23;47.64;99562.31;6304070;22;20383;-90
2022/02/05 15:51:02;;;;;;;28.65;20.40;;;;;;;8.16;47.83;99556.03;6304809;22;19992;-90
2022/02/05 15:53:32;;;;;;;27.58;20.58;;;;;;;8.80;47.90;99678.19;6277323;22;20010;-90
2022/02/05 15:55:57;;;;;;;33.30;23.50;;;;;;;8.61;48.03;99666.16;6275581;22;20007;-90
2022/02/05 15:58:30;;;;;;;33.53;23.98;;;;;;;8.53;48.15;99645.09;6277304;22;20336;-90
2022/02/05 16:00:55;;;;;;;36.55;24.83;;;;;;;8.03;48.65;99576.72;6278851;22;20011;-90
2022/02/05 16:03:21;;;;;;;32.90;22.52;;;;;;;6.57;48.41;99378.19;6306729;22;19991;-90
2022/02/05 16:05:46;;;;;;;35.70;25.40;;;;;;;7.92;48.63;99577.84;6279563;22;20027;-90
2022/02/05 16:08:11;;;;;;;41.22;25.30;;;;;;;6.80;49.53;99419.66;6306852;22;19999;-90
2022/02/05 16:10:37;;;;;;;38.17;25.63;;;;;;;8.07;49.55;99647.25;6279439;22;19999;-90
2022/02/05 16:13:02;;;;;;;46.30;29.58;;;;;;;8.00;49.81;99627.00;6279439;22;20337;-90
2022/02/05 16:15:28;;;;;;;45.83;27.13;;;;;;;7.50;49.83;99548.97;6279782;22;20352;-91
2022/02/05 16:17:53;;;;;;;31.05;21.08;;;;;;;7.64;49.91;99578.09;6307011;22;19995;-90
2022/02/05 16:20:21;;;;;;;34.65;22.58;;;;;;;7.59;49.48;99577.75;6306806;22;20329;-90
2022/02/05 16:22:46;;;;;;;40.72;25.38;;;;;;;7.95;49.74;99653.78;6306884;22;20030;-90
2022/02/05 16:25:14;;;;;;;45.45;30.08;;;;;;;7.94;50.13;99645.06;6306789;22;20348;-90
2022/02/05 16:27:42;;;;;;;42.80;27.38;;;;;;;8.21;50.35;99694.00;6279155;22;20007;-90
2022/02/05 16:30:09;;;;;;;53.25;34.17;;;;;;;7.22;49.94;99564.91;6306610;22;19999;-90
2022/02/05 16:32:35;;;;;;;53.42;35.45;;;;;;;8.12;50.68;99713.31;6279079;22;20003;-90
2022/02/05 16:35:06;;;;;;;80.15;55.28;;;;;;;7.33;50.69;99608.44;6306680;22;20023;-91
2022/02/05 16:37:37;;;;;;;89.72;60.80;;;;;;;8.06;50.60;99728.91;6306647;22;20019;-91
2022/02/05 16:40:06;;;;;;;92.30;60.60;;;;;;;7.76;50.61;99682.94;6306471;22;20364;-90
2022/02/05 16:42:33;;;;;;;96.82;67.30;;;;;;;7.71;50.91;99669.44;6279655;22;20388;-91
2022/02/05 16:44:59;;;;;;;100.50;71.75;;;;;;;7.30;51.02;99635.03;6279219;22;20018;-91
2022/02/05 16:47:25;;;;;;;97.57;63.90;;;;;;;7.70;51.09;99700.16;6279042;22;20026;-91
2022/02/05 16:49:50;;;;;;;100.70;68.80;;;;;;;7.62;50.79;99703.56;6278876;22;20050;-91
2022/02/05 16:52:17;;;;;;;105.43;68.53;;;;;;;7.44;51.18;99666.00;6278894;22;19999;-91
2022/02/05 16:54:44;;;;;;;127.88;84.47;;;;;;;7.25;51.43;99650.41;6278754;22;20440;-91
2022/02/05 16:57:09;;;;;;;110.78;76.35;;;;;;;7.28;51.40;99679.81;6306120;22;20459;-90
2022/02/05 16:59:35;;;;;;;103.30;69.03;;;;;;;7.31;52.08;99684.78;6278653;22;19999;-91
2022/02/05 17:02:00;;;;;;;93.47;62.17;;;;;;;7.07;51.61;99647.00;6279314;22;20133;-91
2022/02/05 17:04:26;;;;;;;98.45;65.75;;;;;;;7.47;51.52;99720.03;6278723;22;20428;-90
2022/02/05 17:06:51;;;;;;;91.57;61.05;;;;;;;7.69;51.83;99784.41;6306418;22;20026;-90
2022/02/05 17:09:16;;;;;;;84.13;53.40;;;;;;;7.01;52.68;99667.66;6279199;22;20005;-91
2022/02/05 17:11:42;;;;;;;81.75;51.63;;;;;;;6.88;51.82;99663.75;6306273;22;20075;-91
2022/02/05 17:14:07;;;;;;;93.68;60.60;;;;;;;7.44;52.24;99773.69;6279098;22;20447;-91
2022/02/05 17:16:33;;;;;;;94.10;59.15;;;;;;;7.49;52.85;99781.94;6279368;22;20006;-90
2022/02/05 17:19:00;;;;;;;87.68;57.25;;;;;;;7.01;52.38;99717.53;6279071;22;20399;-90
2022/02/05 17:21:26;;;;;;;94.88;61.72;;;;;;;7.31;52.71;99775.88;6306384;22;20052;-91
2022/02/05 17:23:52;;;;;;;114.05;71.95;;;;;;;7.41;52.96;99791.53;6306424;22;20114;-90
2022/02/05 17:26:21;;;;;;;118.63;77.03;;;;;;;7.38;52.89;99789.22;6306257;22;20070;-90
2022/02/05 17:28:48;;;;;;;118.93;76.40;;;;;;;7.26;53.12;99792.06;6305986;22;19991;-90
2022/02/05 17:31:14;;;;;;;112.55;73.40;;;;;;;7.33;53.81;99787.03;6278673;22;20017;-90
2022/02/05 17:33:41;;;;;;;122.10;78.90;;;;;;;6.60;53.59;99676.09;6305635;22;19995;-90
2022/02/05 17:36:14;;;;;;;120.85;82.30;;;;;;;7.05;53.99;99769.72;6305697;22;20458;-89
2022/02/05 17:38:39;;;;;;;128.90;86.03;;;;;;;7.14;53.68;99801.16;6278315;22;19999;-90
2022/02/05 17:41:05;;;;;;;151.55;98.88;;;;;;;7.22;53.85;99808.28;6305830;22;20121;-90
2022/02/05 17:43:32;;;;;;;157.05;101.82;;;;;;;7.20;54.21;99813.69;6305843;22;20003;-90
2022/02/05 17:45:59;;;;;;;154.83;109.73;;;;;;;7.17;54.06;99813.16;6305654;22;19999;-90
2022/02/05 17:48:28;;;;;;;161.93;110.07;;;;;;;7.13;54.39;99815.25;6278065;22;19995;-89
2022/02/05 17:50:55;;;;;;;183.25;122.05;;;;;;;6.74;54.23;99758.75;6278201;22;20402;-90
2022/02/05 17:53:20;;;;;;;191.37;128.30;;;;;;;7.08;54.74;99817.50;6305506;22;20052;-90
2022/02/05 17:55:46;;;;;;;174.27;117.88;;;;;;;6.30;54.56;99713.97;6277989;22;20003;-90
2022/02/05 17:58:12;;;;;;;164.97;116.23;;;;;;;6.58;54.50;99751.50;6278117;22;20466;-89
2022/02/05 18:00:40;;;;;;;162.33;114.23;;;;;;;6.59;54.80;99766.28;6278128;22;20003;-90
2022/02/05 18:03:07;;;;;;;159.43;108.73;;;;;;;6.04;55.15;99692.88;6278239;22;20460;-90
2022/02/05 18:05:55;;;;;;;151.40;105.95;;;;;;;6.80;54.54;99816.72;6305715;22;20027;-90
2022/02/05 18:10:58;;;;;;;157.10;104.32;;;;;;;6.21;54.71;99710.44;6305636;22;20402;-90
2022/02/05 18:16:00;;;;;;;175.07;117.40;;;;;;;6.65;54.98;99794.53;6305688;22;20411;-90
2022/02/05 18:18:26;;;;;;;172.27;118.82;;;;;;;6.15;54.92;99739.88;6305452;22;20003;-89
2022/02/05 18:20:52;;;;;;;165.63;114.00;;;;;;;6.82;54.93;99843.66;6305742;22;19999;-90
2022/02/05 18:23:18;;;;;;;159.35;109.57;;;;;;;6.80;55.26;99850.84;6277593;22;20441;-91
2022/02/05 18:25:43;;;;;;;148.43;101.90;;;;;;;6.09;55.04;99735.19;6278504;22;20066;-91
2022/02/05 18:28:10;;;;;;;149.70;104.55;;;;;;;5.08;55.22;99613.59;6278582;22;20356;-90
2022/02/05 18:30:40;;;;;;;155.23;112.57;;;;;;;6.31;55.66;99791.69;6305158;22;19997;-90
2022/02/05 18:33:07;;;;;;;165.90;113.43;;;;;;;6.69;55.76;99862.34;6336347;22;20002;-89
2022/02/05 18:35:34;;;;;;;177.13;125.47;;;;;;;6.37;55.68;99817.31;6335561;22;19992;-90
2022/02/05 18:38:07;;;;;;;174.37;122.03;;;;;;;6.60;55.54;99868.44;6305718;22;19991;-91
2022/02/05 18:40:38;;;;;;;171.10;120.38;;;;;;;6.51;55.88;99850.94;6334361;22;19992;-90
2022/02/05 18:43:05;;;;;;;170.70;121.33;;;;;;;6.57;56.16;99866.09;6307538;22;20007;-91
2022/02/05 18:45:32;;;;;;;195.63;132.20;;;;;;;6.55;55.94;99868.06;6294223;22;20057;-90
2022/02/05 18:47:58;;;;;;;186.27;130.10;;;;;;;5.96;55.98;99790.56;6278571;22;19999;-91
2022/02/05 18:50:23;;;;;;;190.97;132.70;;;;;;;6.50;56.21;99888.63;6305691;22;20455;-91
2022/02/05 18:52:49;;;;;;;193.80;133.33;;;;;;;5.73;56.30;99752.50;6305759;22;20026;-91
2022/02/05 18:55:14;;;;;;;180.07;124.27;;;;;;;6.49;56.46;99878.28;6305695;22;19999;-91
2022/02/05 18:57:41;;;;;;;188.43;129.30;;;;;;;6.48;56.01;99874.84;6305598;22;19991;-90
2022/02/05 19:00:15;;;;;;;188.57;133.03;;;;;;;5.87;56.50;99803.63;6278164;22;20456;-90
2022/02/05 19:03:03;;;;;;;184.27;120.90;;;;;;;5.93;56.50;99798.69;6278755;22;20003;-91
2022/02/05 19:11:14;;;;;;;148.33;102.70;;;;;;;5.63;56.42;99802.28;6336006;22;20041;-90
2022/02/05 19:14:07;;;;;;;143.63;98.97;;;;;;;5.39;56.07;99731.22;6308408;22;19994;-90
2022/02/05 19:19:14;;;;;;;135.53;91.07;;;;;;;6.28;55.87;99875.88;6305662;22;20439;-91
2022/02/05 19:21:41;;;;;;;121.17;82.07;;;;;;;5.48;55.57;99767.03;6278252;22;20090;-93
2022/02/05 19:24:07;;;;;;;126.07;88.20;;;;;;;6.03;55.87;99836.22;6305775;22;20517;-92
2022/02/05 19:26:33;;;;;;;139.40;94.27;;;;;;;6.35;55.92;99892.69;6305289;22;19995;-91
2022/02/05 19:28:58;;;;;;;122.83;84.90;;;;;;;6.28;55.96;99902.91;6277997;22;20056;-92
2022/02/05 19:31:24;;;;;;;118.50;80.07;;;;;;;5.58;55.98;99804.50;6278237;22;20079;-91
2022/02/05 19:33:49;;;;;;;116.70;81.10;;;;;;;5.72;56.51;99827.66;6277943;22;20078;-91
2022/02/05 19:36:15;;;;;;;114.30;82.80;;;;;;;5.66;56.25;99816.91;6307016;22;20052;-91
2022/02/05 19:38:44;;;;;;;116.93;85.10;;;;;;;5.91;56.50;99888.88;6279858;22;19996;-90
2022/02/05 19:41:10;;;;;;;113.03;79.50;;;;;;;5.33;56.04;99810.31;6280241;22;20088;-92
2022/02/05 19:43:40;;;;;;;109.63;78.63;;;;;;;5.97;56.65;99896.22;6279989;22;20039;-91
2022/02/05 19:46:06;;;;;;;107.70;77.33;;;;;;;5.39;56.62;99805.34;6280165;22;20003;-92
2022/02/05 19:48:33;;;;;;;108.23;80.37;;;;;;;6.05;56.80;99920.75;6280453;22;20000;-92
2022/02/05 19:51:00;;;;;;;107.60;77.53;;;;;;;5.84;56.52;99888.59;6307686;22;20448;-93
2022/02/05 19:53:26;;;;;;;115.03;83.43;;;;;;;5.77;56.79;99869.16;6280385;22;19999;-92
2022/02/05 19:55:53;;;;;;;107.03;78.00;;;;;;;5.87;56.91;99897.97;6280329;22;20082;-91
2022/02/05 19:58:18;;;;;;;110.57;80.73;;;;;;;5.64;56.67;99879.91;6307002;22;20100;-90
2022/02/05 20:00:44;;;;;;;124.27;84.30;;;;;;;5.12;56.81;99773.78;6307258;22;20420;-92
2022/02/05 20:03:10;;;;;;;126.57;87.77;;;;;;;5.75;56.51;99905.97;6280491;22;20003;-92
2022/02/05 20:05:54;;;;;;;128.63;91.40;;;;;;;5.39;56.88;99830.72;6307506;22;20002;-91
2022/02/05 20:08:32;;;;;;;132.93;96.63;;;;;;;6.03;56.82;99938.44;6280230;22;20025;-91
2022/02/05 20:11:00;;;;;;;118.57;82.27;;;;;;;6.01;56.59;99955.25;6307393;22;20001;-91
2022/02/05 20:13:28;;;;;;;112.03;79.67;;;;;;;6.00;56.79;99937.88;6280303;22;19999;-90
2022/02/05 20:15:55;;;;;;;113.93;81.27;;;;;;;5.97;56.80;99940.78;6280408;22;20472;-90
2022/02/05 20:18:27;;;;;;;109.70;77.20;;;;;;;5.95;56.84;99937.47;6307267;22;20002;-90
2022/02/05 20:20:53;;;;;;;116.05;83.32;;;;;;;5.92;57.32;99941.16;6307439;22;20023;-92
2022/02/05 20:23:20;;;;;;;112.90;79.70;;;;;;;5.92;57.15;99945.56;6280362;22;20007;-91
2022/02/05 20:25:49;;;;;;;112.67;79.63;;;;;;;5.77;57.20;99918.09;6280272;22;20083;-91
2022/02/05 20:28:15;;;;;;;112.67;79.97;;;;;;;5.39;57.20;99872.59;6307721;22;19999;-91
2022/02/05 20:30:41;;;;;;;108.77;76.60;;;;;;;5.12;57.54;99844.44;6307288;22;19995;-91
2022/02/05 20:33:11;;;;;;;107.33;76.27;;;;;;;4.55;57.60;99764.06;6307286;22;20082;-91
2022/02/05 20:35:36;;;;;;;110.80;75.67;;;;;;;4.15;57.69;99681.25;6279586;22;20003;-91
2022/02/05 20:38:02;;;;;;;108.53;75.17;;;;;;;5.36;57.51;99905.13;6279755;22;20006;-91
2022/02/05 20:40:27;;;;;;;108.17;76.40;;;;;;;4.94;57.80;99815.50;6279308;22;19999;-91
2022/02/05 20:42:53;;;;;;;117.17;79.67;;;;;;;4.83;57.46;99799.91;6279686;22;20035;-89
2022/02/05 20:45:18;;;;;;;114.27;78.83;;;;;;;5.18;57.69;99862.22;6279609;22;20086;-90
2022/02/05 20:47:44;;;;;;;118.93;82.57;;;;;;;5.58;57.72;99930.22;6278798;22;20449;-89
2022/02/05 20:50:13;;;;;;;111.63;80.17;;;;;;;5.81;57.81;99958.78;6279315;22;20226;-89
2022/02/05 20:52:39;;;;;;;99.20;69.53;;;;;;;5.80;57.97;99962.38;6306659;22;19999;-90
2022/02/05 20:55:07;;;;;;;98.47;67.30;;;;;;;5.84;57.79;99969.81;6279243;22;20462;-90
2022/02/05 20:57:35;;;;;;;90.50;63.90;;;;;;;5.82;57.87;99974.38;6279325;22;20025;-91
2022/02/05 21:00:00;;;;;;;90.80;65.93;;;;;;;5.78;57.81;99961.69;6306394;22;20052;-89
2022/02/05 21:02:27;;;;;;;96.43;68.63;;;;;;;5.94;57.97;99970.69;6279346;22;20003;-91
2022/02/05 21:04:55;;;;;;;98.20;68.10;;;;;;;5.56;57.71;99921.69;6306620;22;20435;-89
2022/02/05 21:07:21;;;;;;;99.03;67.93;;;;;;;6.01;57.98;99971.81;6279375;22;20027;-89
2022/02/05 21:09:47;;;;;;;94.93;65.97;;;;;;;5.52;57.48;99909.00;6306277;22;20014;-89
2022/02/05 21:12:12;;;;;;;98.27;67.77;;;;;;;6.09;57.67;99975.53;6279364;22;20166;-89
2022/02/05 21:14:38;;;;;;;98.10;65.03;;;;;;;5.43;57.75;99884.47;6306434;22;19995;-89
2022/02/05 21:17:04;;;;;;;98.30;66.53;;;;;;;5.46;57.90;99863.25;6306288;22;20474;-89
2022/02/05 21:19:29;;;;;;;95.33;65.20;;;;;;;5.40;57.75;99863.78;6278681;22;20006;-90